»·PEaware :: N2Q KABQ-KSEZ

N2Q :: KABQ-KSEZ

FLIGHT INFORMATION

Flight Status: Arrived
Operator: Privately registered:
United States
More flights under this callsign
Pilot: Alex K. (14822)
Aircraft: CESSNA 550 CITATION 2/S2/BRAVO
(C550)
More flights by this aircraft type
Origin: KABQ Albuquerque Intl Sunport
United States
Destination: KSEZ Sedona
United States
More flights between these airports :: More routes between these airports
Route: ADYOS3 ZUN BOWSU
File this flight plan on PilotEdge
Remarks:
Altitude:
(Current/Filed)
28,000ft
Speed:
(Current/Filed)
350kts
Departed: 08-Nov-18 10:24 AM
Arrived: 08-Nov-18 11:19 AM
Distance/Time
Traveled:
255nm/0:54
Distance/Time
To Go:
Arrived

Flight Plot

Page will automatically refresh every two minutes.

Flight plan parsing failed; only flown route is shown


Map Options




Map Legend


Flown Route
Filed Route
Departure Airport
Arrival Airport
Navaid (VOR, NDB)
Fix

Horizontal Profiles

Position Reports

Time Latitude Longitude Heading Altitude Ground
Speed
08-Nov-18 10:13 35.035879 -106.620917 46 5320ft 0kts
08-Nov-18 10:14 35.035879 -106.620917 46 5320ft 0kts
08-Nov-18 10:15 35.035879 -106.620917 46 5320ft 0kts
08-Nov-18 10:16 35.035879 -106.620917 46 5320ft 0kts
08-Nov-18 10:17 35.035879 -106.620917 46 5320ft 0kts
08-Nov-18 10:18 35.035879 -106.620917 46 5320ft 0kts
08-Nov-18 10:19 35.035879 -106.620917 46 5320ft 0kts
08-Nov-18 10:20 35.035879 -106.620917 46 5320ft 0kts
08-Nov-18 10:21 35.035852 -106.620685 125 5320ft 6kts
08-Nov-18 10:22 35.035450 -106.616802 44 5320ft 15kts
08-Nov-18 10:23 35.039035 -106.613877 9 5320ft 19kts
08-Nov-18 10:24 35.042436 -106.611421 90 5320ft 17kts
08-Nov-18 10:25 35.042413 -106.608193 88 5320ft 0kts
08-Nov-18 10:26 35.042412 -106.608001 91 5320ft 4kts
08-Nov-18 10:27 35.026348 -106.626036 231 6316ft 191kts
08-Nov-18 10:28 35.019580 -106.690222 267 8987ft 269kts
08-Nov-18 10:29 35.023706 -106.790932 280 12854ft 223kts
08-Nov-18 10:30 35.034389 -106.852381 281 15841ft 228kts
08-Nov-18 10:31 35.046464 -106.939834 270 19594ft 228kts
08-Nov-18 10:32 35.045196 -107.004147 269 21885ft 230kts
08-Nov-18 10:33 35.042717 -107.095007 269 24672ft 232kts
08-Nov-18 10:34 35.040788 -107.160555 269 26390ft 234kts
08-Nov-18 10:35 35.038383 -107.239654 269 28088ft 239kts
08-Nov-18 10:36 35.035666 -107.328155 268 28165ft 280kts
08-Nov-18 10:37 35.032590 -107.426527 268 28174ft 299kts
08-Nov-18 10:38 35.029300 -107.529248 268 28183ft 306kts
08-Nov-18 10:39 35.025884 -107.633406 268 28182ft 309kts
08-Nov-18 10:40 35.022445 -107.735329 268 28197ft 312kts
08-Nov-18 10:41 35.018801 -107.841074 268 28195ft 313kts
08-Nov-18 10:42 35.015057 -107.946774 268 28193ft 314kts
08-Nov-18 10:43 35.011207 -108.052790 268 28191ft 314kts
08-Nov-18 10:44 35.007255 -108.159077 268 28190ft 314kts
08-Nov-18 10:45 35.003250 -108.264552 268 28188ft 314kts
08-Nov-18 10:46 34.999129 -108.370461 268 28193ft 313kts
08-Nov-18 10:47 34.994924 -108.476252 268 28197ft 313kts
08-Nov-18 10:48 34.990613 -108.582333 267 28198ft 314kts
08-Nov-18 10:49 34.986300 -108.685775 267 28213ft 315kts
08-Nov-18 10:50 34.981888 -108.790289 267 28210ft 316kts
08-Nov-18 10:51 34.977298 -108.896402 267 28200ft 316kts
08-Nov-18 10:52 34.972645 -109.001889 267 28188ft 316kts
08-Nov-18 10:53 34.967829 -109.108703 267 28174ft 317kts
08-Nov-18 10:54 34.959586 -109.214088 264 28162ft 318kts
08-Nov-18 10:55 34.948782 -109.319754 264 28160ft 318kts
08-Nov-18 10:56 34.937816 -109.425453 264 28158ft 318kts
08-Nov-18 10:57 34.926655 -109.531902 263 28156ft 318kts
08-Nov-18 10:58 34.915065 -109.641563 263 27294ft 336kts
08-Nov-18 10:59 34.903285 -109.752007 263 26352ft 346kts
08-Nov-18 11:00 34.891214 -109.864276 262 25402ft 338kts
08-Nov-18 11:01 34.879722 -109.970353 262 24410ft 308kts
08-Nov-18 11:02 34.868511 -110.072627 262 23414ft 317kts
08-Nov-18 11:03 34.856456 -110.181817 262 22582ft 336kts
08-Nov-18 11:04 34.843843 -110.295314 262 21769ft 335kts
08-Nov-18 11:05 34.831406 -110.406211 262 20946ft 329kts
08-Nov-18 11:06 34.818978 -110.516081 262 20121ft 328kts
08-Nov-18 11:07 34.806395 -110.626404 262 19292ft 330kts
08-Nov-18 11:08 34.794035 -110.733901 262 18521ft 331kts
08-Nov-18 11:09 34.781240 -110.844385 262 17729ft 323kts
08-Nov-18 11:10 34.769009 -110.948919 262 16944ft 315kts
08-Nov-18 11:11 34.756687 -111.053563 262 16146ft 313kts
08-Nov-18 11:12 34.744274 -111.158252 262 15343ft 314kts
08-Nov-18 11:13 34.731800 -111.262821 262 14540ft 315kts
08-Nov-18 11:14 34.735190 -111.368322 283 13592ft 320kts
08-Nov-18 11:15 34.756471 -111.471639 283 12582ft 302kts
08-Nov-18 11:16 34.775605 -111.563728 283 11573ft 274kts
08-Nov-18 11:17 34.794375 -111.650513 283 10582ft 270kts
08-Nov-18 11:18 34.831213 -111.711934 344 9087ft 191kts
08-Nov-18 11:19 34.867334 -111.729661 289 7587ft 116kts
08-Nov-18 11:20 34.866991 -111.764964 228 5711ft 105kts
08-Nov-18 11:21 34.848841 -111.788152 224 4778ft 60kts
08-Nov-18 11:22 34.847605 -111.790872 44 4778ft 9kts
08-Nov-18 11:23 34.848809 -111.790285 320 4778ft 0kts
08-Nov-18 11:24 34.848809 -111.790285 320 4778ft 0kts

Navigation Log

Ident Type
Flight plan parsing failed, navigation log unavailable